sensor_id;sensor_type;location;lat;lon;timestamp;P1;durP1;ratioP1;P2;durP2;ratioP2
75289;SDS011;63883;48.996;20.804;2023-02-11T00:01:38;35.40;;;14.32;;
75289;SDS011;63883;48.996;20.804;2023-02-11T00:04:04;43.58;;;17.10;;
75289;SDS011;63883;48.996;20.804;2023-02-11T00:06:31;46.70;;;17.15;;
75289;SDS011;63883;48.996;20.804;2023-02-11T00:08:58;42.03;;;19.30;;
75289;SDS011;63883;48.996;20.804;2023-02-11T00:11:24;50.42;;;20.02;;
75289;SDS011;63883;48.996;20.804;2023-02-11T00:13:55;52.72;;;21.88;;
75289;SDS011;63883;48.996;20.804;2023-02-11T00:16:25;50.67;;;21.58;;
75289;SDS011;63883;48.996;20.804;2023-02-11T00:18:51;45.90;;;19.08;;
75289;SDS011;63883;48.996;20.804;2023-02-11T00:21:19;46.88;;;19.83;;
75289;SDS011;63883;48.996;20.804;2023-02-11T00:23:48;53.33;;;20.25;;
75289;SDS011;63883;48.996;20.804;2023-02-11T00:26:21;48.58;;;18.65;;
75289;SDS011;63883;48.996;20.804;2023-02-11T00:28:49;38.97;;;15.75;;
75289;SDS011;63883;48.996;20.804;2023-02-11T00:31:17;37.00;;;14.88;;
75289;SDS011;63883;48.996;20.804;2023-02-11T00:33:44;27.58;;;14.90;;
75289;SDS011;63883;48.996;20.804;2023-02-11T00:36:12;30.92;;;13.07;;
75289;SDS011;63883;48.996;20.804;2023-02-11T00:38:43;25.88;;;12.23;;
75289;SDS011;63883;48.996;20.804;2023-02-11T00:41:09;38.88;;;16.27;;
75289;SDS011;63883;48.996;20.804;2023-02-11T00:43:35;39.47;;;17.15;;
75289;SDS011;63883;48.996;20.804;2023-02-11T00:46:01;33.78;;;15.35;;
75289;SDS011;63883;48.996;20.804;2023-02-11T00:48:27;36.67;;;17.50;;
75289;SDS011;63883;48.996;20.804;2023-02-11T00:50:53;47.72;;;20.15;;
75289;SDS011;63883;48.996;20.804;2023-02-11T00:53:19;39.85;;;19.35;;
75289;SDS011;63883;48.996;20.804;2023-02-11T00:55:44;43.70;;;17.17;;
75289;SDS011;63883;48.996;20.804;2023-02-11T00:58:10;34.75;;;16.13;;
75289;SDS011;63883;48.996;20.804;2023-02-11T01:00:36;33.35;;;13.23;;
75289;SDS011;63883;48.996;20.804;2023-02-11T01:03:02;32.67;;;14.40;;
75289;SDS011;63883;48.996;20.804;2023-02-11T01:05:27;26.45;;;12.45;;
75289;SDS011;63883;48.996;20.804;2023-02-11T01:07:54;30.25;;;12.57;;
75289;SDS011;63883;48.996;20.804;2023-02-11T01:10:19;38.35;;;16.45;;
75289;SDS011;63883;48.996;20.804;2023-02-11T01:12:45;32.30;;;15.95;;
75289;SDS011;63883;48.996;20.804;2023-02-11T01:15:13;41.85;;;17.30;;
75289;SDS011;63883;48.996;20.804;2023-02-11T01:20:06;20.60;;;10.75;;
75289;SDS011;63883;48.996;20.804;2023-02-11T01:22:35;25.08;;;11.15;;
75289;SDS011;63883;48.996;20.804;2023-02-11T01:25:04;25.75;;;12.63;;
75289;SDS011;63883;48.996;20.804;2023-02-11T01:27:31;30.70;;;13.05;;
75289;SDS011;63883;48.996;20.804;2023-02-11T01:29:57;29.73;;;14.05;;
75289;SDS011;63883;48.996;20.804;2023-02-11T01:32:23;25.13;;;13.20;;
75289;SDS011;63883;48.996;20.804;2023-02-11T01:34:48;29.85;;;13.25;;
75289;SDS011;63883;48.996;20.804;2023-02-11T01:37:14;31.10;;;14.55;;
75289;SDS011;63883;48.996;20.804;2023-02-11T01:39:40;29.75;;;13.00;;
75289;SDS011;63883;48.996;20.804;2023-02-11T01:42:06;23.63;;;11.88;;
75289;SDS011;63883;48.996;20.804;2023-02-11T01:44:36;38.53;;;14.40;;
75289;SDS011;63883;48.996;20.804;2023-02-11T01:47:02;31.70;;;13.55;;
75289;SDS011;63883;48.996;20.804;2023-02-11T01:49:32;34.45;;;11.85;;
75289;SDS011;63883;48.996;20.804;2023-02-11T01:54:37;30.48;;;13.07;;
75289;SDS011;63883;48.996;20.804;2023-02-11T01:57:25;30.35;;;12.85;;
75289;SDS011;63883;48.996;20.804;2023-02-11T02:02:20;17.17;;;9.80;;
75289;SDS011;63883;48.996;20.804;2023-02-11T02:04:52;18.13;;;9.80;;
75289;SDS011;63883;48.996;20.804;2023-02-11T02:07:31;22.67;;;10.10;;
75289;SDS011;63883;48.996;20.804;2023-02-11T02:10:07;29.95;;;10.98;;
75289;SDS011;63883;48.996;20.804;2023-02-11T02:12:36;27.52;;;12.07;;
75289;SDS011;63883;48.996;20.804;2023-02-11T02:15:35;26.33;;;11.90;;
75289;SDS011;63883;48.996;20.804;2023-02-11T02:31:39;45.20;;;19.90;;
75289;SDS011;63883;48.996;20.804;2023-02-11T02:34:36;33.28;;;15.35;;
75289;SDS011;63883;48.996;20.804;2023-02-11T02:37:11;29.50;;;13.70;;
75289;SDS011;63883;48.996;20.804;2023-02-11T02:39:42;30.45;;;13.68;;
75289;SDS011;63883;48.996;20.804;2023-02-11T02:42:12;37.58;;;13.30;;
75289;SDS011;63883;48.996;20.804;2023-02-11T02:44:39;22.08;;;9.88;;
75289;SDS011;63883;48.996;20.804;2023-02-11T02:47:04;27.60;;;12.13;;
75289;SDS011;63883;48.996;20.804;2023-02-11T02:49:30;25.92;;;12.63;;
75289;SDS011;63883;48.996;20.804;2023-02-11T02:52:12;24.55;;;12.32;;
75289;SDS011;63883;48.996;20.804;2023-02-11T02:54:46;41.10;;;15.48;;
75289;SDS011;63883;48.996;20.804;2023-02-11T02:57:31;33.35;;;13.35;;
75289;SDS011;63883;48.996;20.804;2023-02-11T03:11:03;18.33;;;9.68;;
75289;SDS011;63883;48.996;20.804;2023-02-11T03:13:32;33.47;;;15.05;;
75289;SDS011;63883;48.996;20.804;2023-02-11T03:16:07;21.73;;;9.57;;
75289;SDS011;63883;48.996;20.804;2023-02-11T03:18:38;32.90;;;13.45;;
75289;SDS011;63883;48.996;20.804;2023-02-11T03:21:05;33.05;;;14.98;;
75289;SDS011;63883;48.996;20.804;2023-02-11T03:23:35;32.65;;;15.00;;
75289;SDS011;63883;48.996;20.804;2023-02-11T03:26:10;25.27;;;12.02;;
75289;SDS011;63883;48.996;20.804;2023-02-11T03:40:18;19.90;;;9.57;;
75289;SDS011;63883;48.996;20.804;2023-02-11T03:42:50;23.67;;;9.93;;
75289;SDS011;63883;48.996;20.804;2023-02-11T03:45:22;26.23;;;12.68;;
75289;SDS011;63883;48.996;20.804;2023-02-11T03:47:51;25.13;;;11.57;;
75289;SDS011;63883;48.996;20.804;2023-02-11T03:50:20;21.45;;;11.25;;
75289;SDS011;63883;48.996;20.804;2023-02-11T03:52:47;23.48;;;10.68;;
75289;SDS011;63883;48.996;20.804;2023-02-11T03:55:16;28.90;;;12.60;;
75289;SDS011;63883;48.996;20.804;2023-02-11T03:57:43;26.67;;;11.65;;
75289;SDS011;63883;48.996;20.804;2023-02-11T04:00:10;24.38;;;11.90;;
75289;SDS011;63883;48.996;20.804;2023-02-11T04:02:36;22.08;;;10.30;;
75289;SDS011;63883;48.996;20.804;2023-02-11T04:05:04;19.55;;;8.15;;
75289;SDS011;63883;48.996;20.804;2023-02-11T04:07:31;28.30;;;12.43;;
75289;SDS011;63883;48.996;20.804;2023-02-11T04:09:57;16.27;;;9.25;;
75289;SDS011;63883;48.996;20.804;2023-02-11T04:12:23;25.35;;;11.18;;
75289;SDS011;63883;48.996;20.804;2023-02-11T04:14:48;23.50;;;12.38;;
75289;SDS011;63883;48.996;20.804;2023-02-11T04:17:14;20.73;;;12.38;;
75289;SDS011;63883;48.996;20.804;2023-02-11T04:19:40;26.55;;;13.38;;
75289;SDS011;63883;48.996;20.804;2023-02-11T04:22:06;24.80;;;13.02;;
75289;SDS011;63883;48.996;20.804;2023-02-11T04:24:32;22.00;;;12.68;;
75289;SDS011;63883;48.996;20.804;2023-02-11T04:26:58;23.05;;;12.75;;
75289;SDS011;63883;48.996;20.804;2023-02-11T04:29:24;31.00;;;14.68;;
75289;SDS011;63883;48.996;20.804;2023-02-11T04:31:49;27.52;;;13.95;;
75289;SDS011;63883;48.996;20.804;2023-02-11T04:34:15;32.83;;;15.70;;
75289;SDS011;63883;48.996;20.804;2023-02-11T04:36:41;29.08;;;13.63;;
75289;SDS011;63883;48.996;20.804;2023-02-11T04:39:07;25.65;;;13.68;;
75289;SDS011;63883;48.996;20.804;2023-02-11T04:41:32;34.53;;;14.85;;
75289;SDS011;63883;48.996;20.804;2023-02-11T04:43:58;37.00;;;15.82;;
75289;SDS011;63883;48.996;20.804;2023-02-11T04:46:24;31.20;;;15.18;;
75289;SDS011;63883;48.996;20.804;2023-02-11T04:48:50;38.47;;;15.48;;
75289;SDS011;63883;48.996;20.804;2023-02-11T04:51:15;31.77;;;16.10;;
75289;SDS011;63883;48.996;20.804;2023-02-11T04:53:41;30.45;;;13.75;;
75289;SDS011;63883;48.996;20.804;2023-02-11T04:56:07;31.08;;;14.65;;
75289;SDS011;63883;48.996;20.804;2023-02-11T04:58:33;32.35;;;16.40;;
75289;SDS011;63883;48.996;20.804;2023-02-11T05:01:08;29.65;;;14.93;;
75289;SDS011;63883;48.996;20.804;2023-02-11T05:03:37;30.98;;;15.05;;
75289;SDS011;63883;48.996;20.804;2023-02-11T05:06:03;34.40;;;14.65;;
75289;SDS011;63883;48.996;20.804;2023-02-11T05:08:29;30.52;;;15.48;;
75289;SDS011;63883;48.996;20.804;2023-02-11T05:10:55;31.25;;;15.07;;
75289;SDS011;63883;48.996;20.804;2023-02-11T05:13:21;26.45;;;14.45;;
75289;SDS011;63883;48.996;20.804;2023-02-11T05:15:46;33.50;;;14.43;;
75289;SDS011;63883;48.996;20.804;2023-02-11T05:18:12;29.75;;;14.73;;
75289;SDS011;63883;48.996;20.804;2023-02-11T05:20:41;33.33;;;15.55;;
75289;SDS011;63883;48.996;20.804;2023-02-11T05:23:08;28.50;;;14.90;;
75289;SDS011;63883;48.996;20.804;2023-02-11T05:25:34;30.98;;;14.32;;
75289;SDS011;63883;48.996;20.804;2023-02-11T05:28:00;29.55;;;14.02;;
75289;SDS011;63883;48.996;20.804;2023-02-11T05:30:26;33.30;;;14.00;;
75289;SDS011;63883;48.996;20.804;2023-02-11T05:32:52;31.58;;;14.85;;
75289;SDS011;63883;48.996;20.804;2023-02-11T05:35:17;32.15;;;16.00;;
75289;SDS011;63883;48.996;20.804;2023-02-11T05:37:43;32.35;;;16.80;;
75289;SDS011;63883;48.996;20.804;2023-02-11T05:40:09;34.20;;;16.27;;
75289;SDS011;63883;48.996;20.804;2023-02-11T05:42:35;49.03;;;20.85;;
75289;SDS011;63883;48.996;20.804;2023-02-11T05:45:01;41.08;;;19.02;;
75289;SDS011;63883;48.996;20.804;2023-02-11T05:47:27;42.00;;;19.33;;
75289;SDS011;63883;48.996;20.804;2023-02-11T05:49:53;35.20;;;17.45;;
75289;SDS011;63883;48.996;20.804;2023-02-11T05:52:19;35.17;;;17.05;;
75289;SDS011;63883;48.996;20.804;2023-02-11T05:54:45;38.45;;;16.63;;
75289;SDS011;63883;48.996;20.804;2023-02-11T05:57:11;43.17;;;18.33;;
75289;SDS011;63883;48.996;20.804;2023-02-11T05:59:37;33.35;;;16.70;;
75289;SDS011;63883;48.996;20.804;2023-02-11T06:02:03;40.83;;;18.58;;
75289;SDS011;63883;48.996;20.804;2023-02-11T06:04:29;42.75;;;19.58;;
75289;SDS011;63883;48.996;20.804;2023-02-11T06:06:55;40.78;;;18.15;;
75289;SDS011;63883;48.996;20.804;2023-02-11T06:09:21;42.03;;;18.45;;
75289;SDS011;63883;48.996;20.804;2023-02-11T06:11:46;35.92;;;15.95;;
75289;SDS011;63883;48.996;20.804;2023-02-11T06:14:12;45.22;;;19.08;;
75289;SDS011;63883;48.996;20.804;2023-02-11T06:16:38;45.67;;;20.40;;
75289;SDS011;63883;48.996;20.804;2023-02-11T06:19:04;38.17;;;17.95;;
75289;SDS011;63883;48.996;20.804;2023-02-11T06:21:30;36.88;;;17.63;;
75289;SDS011;63883;48.996;20.804;2023-02-11T06:23:55;40.70;;;19.15;;
75289;SDS011;63883;48.996;20.804;2023-02-11T06:26:22;40.30;;;18.60;;
75289;SDS011;63883;48.996;20.804;2023-02-11T06:28:47;39.05;;;19.45;;
75289;SDS011;63883;48.996;20.804;2023-02-11T06:31:14;48.45;;;20.25;;
75289;SDS011;63883;48.996;20.804;2023-02-11T06:33:40;47.67;;;18.75;;
75289;SDS011;63883;48.996;20.804;2023-02-11T06:36:16;42.00;;;18.42;;
75289;SDS011;63883;48.996;20.804;2023-02-11T06:38:43;45.10;;;19.08;;
75289;SDS011;63883;48.996;20.804;2023-02-11T06:41:10;53.25;;;22.25;;
75289;SDS011;63883;48.996;20.804;2023-02-11T06:43:38;45.42;;;22.17;;
75289;SDS011;63883;48.996;20.804;2023-02-11T06:46:04;54.03;;;21.25;;
75289;SDS011;63883;48.996;20.804;2023-02-11T06:48:30;46.80;;;19.27;;
75289;SDS011;63883;48.996;20.804;2023-02-11T06:50:56;43.40;;;21.13;;
75289;SDS011;63883;48.996;20.804;2023-02-11T06:53:26;52.45;;;22.75;;
75289;SDS011;63883;48.996;20.804;2023-02-11T06:55:52;47.45;;;20.27;;
75289;SDS011;63883;48.996;20.804;2023-02-11T06:58:17;44.70;;;20.15;;
75289;SDS011;63883;48.996;20.804;2023-02-11T07:00:43;48.25;;;21.17;;
75289;SDS011;63883;48.996;20.804;2023-02-11T07:03:09;58.05;;;24.48;;
75289;SDS011;63883;48.996;20.804;2023-02-11T07:05:35;54.17;;;23.45;;
75289;SDS011;63883;48.996;20.804;2023-02-11T07:08:02;48.92;;;23.02;;
75289;SDS011;63883;48.996;20.804;2023-02-11T07:10:29;52.28;;;21.83;;
75289;SDS011;63883;48.996;20.804;2023-02-11T07:12:54;42.03;;;20.63;;
75289;SDS011;63883;48.996;20.804;2023-02-11T07:15:20;50.40;;;22.58;;
75289;SDS011;63883;48.996;20.804;2023-02-11T07:17:46;40.63;;;19.60;;
75289;SDS011;63883;48.996;20.804;2023-02-11T07:20:12;46.60;;;24.35;;
75289;SDS011;63883;48.996;20.804;2023-02-11T07:22:39;55.58;;;23.08;;
75289;SDS011;63883;48.996;20.804;2023-02-11T07:25:04;53.08;;;21.67;;
75289;SDS011;63883;48.996;20.804;2023-02-11T07:27:30;52.17;;;21.65;;
75289;SDS011;63883;48.996;20.804;2023-02-11T07:29:56;42.10;;;20.88;;
75289;SDS011;63883;48.996;20.804;2023-02-11T07:32:22;45.60;;;22.23;;
75289;SDS011;63883;48.996;20.804;2023-02-11T07:34:48;48.85;;;23.10;;
75289;SDS011;63883;48.996;20.804;2023-02-11T07:37:13;48.35;;;22.08;;
75289;SDS011;63883;48.996;20.804;2023-02-11T07:39:39;65.85;;;26.30;;
75289;SDS011;63883;48.996;20.804;2023-02-11T07:42:05;53.08;;;23.63;;
75289;SDS011;63883;48.996;20.804;2023-02-11T07:44:31;49.30;;;21.10;;
75289;SDS011;63883;48.996;20.804;2023-02-11T07:46:57;43.78;;;20.67;;
75289;SDS011;63883;48.996;20.804;2023-02-11T07:49:24;50.10;;;22.23;;
75289;SDS011;63883;48.996;20.804;2023-02-11T07:51:49;54.53;;;23.23;;
75289;SDS011;63883;48.996;20.804;2023-02-11T07:54:16;59.88;;;25.83;;
75289;SDS011;63883;48.996;20.804;2023-02-11T07:56:42;61.92;;;27.13;;
75289;SDS011;63883;48.996;20.804;2023-02-11T07:59:09;61.63;;;26.48;;
75289;SDS011;63883;48.996;20.804;2023-02-11T08:01:35;59.65;;;25.08;;
75289;SDS011;63883;48.996;20.804;2023-02-11T08:04:01;53.63;;;23.67;;
75289;SDS011;63883;48.996;20.804;2023-02-11T08:06:29;53.75;;;22.05;;
75289;SDS011;63883;48.996;20.804;2023-02-11T08:08:56;44.97;;;20.10;;
75289;SDS011;63883;48.996;20.804;2023-02-11T08:11:27;45.22;;;22.25;;
75289;SDS011;63883;48.996;20.804;2023-02-11T08:13:54;49.33;;;21.52;;
75289;SDS011;63883;48.996;20.804;2023-02-11T08:16:27;48.17;;;22.17;;
75289;SDS011;63883;48.996;20.804;2023-02-11T08:18:59;70.05;;;29.08;;
75289;SDS011;63883;48.996;20.804;2023-02-11T08:21:26;46.20;;;21.23;;
75289;SDS011;63883;48.996;20.804;2023-02-11T08:23:52;54.88;;;22.85;;
75289;SDS011;63883;48.996;20.804;2023-02-11T08:26:21;51.38;;;23.27;;
75289;SDS011;63883;48.996;20.804;2023-02-11T08:28:48;49.15;;;23.77;;
75289;SDS011;63883;48.996;20.804;2023-02-11T08:31:17;53.58;;;24.50;;
75289;SDS011;63883;48.996;20.804;2023-02-11T08:33:47;51.08;;;23.02;;
75289;SDS011;63883;48.996;20.804;2023-02-11T08:36:14;61.80;;;27.63;;
75289;SDS011;63883;48.996;20.804;2023-02-11T08:38:44;53.47;;;23.65;;
75289;SDS011;63883;48.996;20.804;2023-02-11T08:41:10;55.22;;;25.67;;
75289;SDS011;63883;48.996;20.804;2023-02-11T08:43:39;47.05;;;22.20;;
75289;SDS011;63883;48.996;20.804;2023-02-11T08:46:06;45.38;;;20.58;;
75289;SDS011;63883;48.996;20.804;2023-02-11T08:48:33;63.42;;;30.42;;
75289;SDS011;63883;48.996;20.804;2023-02-11T08:50:59;55.30;;;24.92;;
75289;SDS011;63883;48.996;20.804;2023-02-11T08:53:25;53.00;;;25.17;;
75289;SDS011;63883;48.996;20.804;2023-02-11T08:55:53;56.88;;;27.55;;
75289;SDS011;63883;48.996;20.804;2023-02-11T08:58:20;70.40;;;30.70;;
75289;SDS011;63883;48.996;20.804;2023-02-11T09:00:47;59.60;;;26.38;;
75289;SDS011;63883;48.996;20.804;2023-02-11T09:03:14;55.70;;;25.83;;
75289;SDS011;63883;48.996;20.804;2023-02-11T09:05:41;62.45;;;27.70;;
75289;SDS011;63883;48.996;20.804;2023-02-11T09:08:08;63.33;;;28.10;;
75289;SDS011;63883;48.996;20.804;2023-02-11T09:10:33;66.35;;;28.65;;
75289;SDS011;63883;48.996;20.804;2023-02-11T09:13:00;60.22;;;27.63;;
75289;SDS011;63883;48.996;20.804;2023-02-11T09:15:25;57.05;;;26.17;;
75289;SDS011;63883;48.996;20.804;2023-02-11T09:17:51;57.67;;;27.83;;
75289;SDS011;63883;48.996;20.804;2023-02-11T09:20:17;55.00;;;26.42;;
75289;SDS011;63883;48.996;20.804;2023-02-11T09:22:43;57.63;;;26.10;;
75289;SDS011;63883;48.996;20.804;2023-02-11T09:25:09;58.03;;;25.92;;
75289;SDS011;63883;48.996;20.804;2023-02-11T09:27:35;62.50;;;27.02;;
75289;SDS011;63883;48.996;20.804;2023-02-11T09:30:01;58.20;;;26.08;;
75289;SDS011;63883;48.996;20.804;2023-02-11T09:32:26;51.05;;;24.38;;
75289;SDS011;63883;48.996;20.804;2023-02-11T09:34:52;56.17;;;24.15;;
75289;SDS011;63883;48.996;20.804;2023-02-11T09:37:18;51.38;;;22.63;;
75289;SDS011;63883;48.996;20.804;2023-02-11T09:39:44;47.42;;;22.85;;
75289;SDS011;63883;48.996;20.804;2023-02-11T09:44:48;40.80;;;21.52;;
75289;SDS011;63883;48.996;20.804;2023-02-11T09:47:49;45.00;;;21.63;;
75289;SDS011;63883;48.996;20.804;2023-02-11T09:50:30;48.70;;;22.20;;
75289;SDS011;63883;48.996;20.804;2023-02-11T09:53:09;45.92;;;21.67;;
75289;SDS011;63883;48.996;20.804;2023-02-11T09:55:54;42.35;;;20.17;;
75289;SDS011;63883;48.996;20.804;2023-02-11T09:58:27;47.60;;;21.27;;
75289;SDS011;63883;48.996;20.804;2023-02-11T10:03:29;43.88;;;20.10;;
75289;SDS011;63883;48.996;20.804;2023-02-11T10:19:45;51.88;;;23.98;;
75289;SDS011;63883;48.996;20.804;2023-02-11T10:24:51;58.58;;;27.65;;
75289;SDS011;63883;48.996;20.804;2023-02-11T10:27:21;51.03;;;22.90;;
75289;SDS011;63883;48.996;20.804;2023-02-11T10:29:58;48.45;;;23.25;;
75289;SDS011;63883;48.996;20.804;2023-02-11T10:35:01;49.38;;;22.42;;
75289;SDS011;63883;48.996;20.804;2023-02-11T10:37:35;46.63;;;22.55;;
75289;SDS011;63883;48.996;20.804;2023-02-11T10:40:01;52.40;;;23.88;;
75289;SDS011;63883;48.996;20.804;2023-02-11T10:42:27;52.47;;;22.77;;
75289;SDS011;63883;48.996;20.804;2023-02-11T10:44:56;53.15;;;26.27;;
75289;SDS011;63883;48.996;20.804;2023-02-11T10:47:27;52.55;;;25.35;;
75289;SDS011;63883;48.996;20.804;2023-02-11T10:49:57;49.15;;;25.50;;
75289;SDS011;63883;48.996;20.804;2023-02-11T10:52:27;51.00;;;25.02;;
75289;SDS011;63883;48.996;20.804;2023-02-11T10:57:25;53.13;;;25.98;;
75289;SDS011;63883;48.996;20.804;2023-02-11T10:59:59;54.05;;;27.70;;
75289;SDS011;63883;48.996;20.804;2023-02-11T11:02:32;57.63;;;28.65;;
75289;SDS011;63883;48.996;20.804;2023-02-11T11:05:02;55.47;;;26.83;;
75289;SDS011;63883;48.996;20.804;2023-02-11T11:07:41;47.40;;;23.52;;
75289;SDS011;63883;48.996;20.804;2023-02-11T11:10:35;44.28;;;22.40;;
75289;SDS011;63883;48.996;20.804;2023-02-11T11:13:24;50.78;;;25.27;;
75289;SDS011;63883;48.996;20.804;2023-02-11T11:18:48;63.08;;;28.65;;
75289;SDS011;63883;48.996;20.804;2023-02-11T11:23:54;51.63;;;26.20;;
75289;SDS011;63883;48.996;20.804;2023-02-11T11:26:22;49.13;;;24.45;;
75289;SDS011;63883;48.996;20.804;2023-02-11T11:28:52;49.45;;;24.83;;
75289;SDS011;63883;48.996;20.804;2023-02-11T11:31:26;53.45;;;26.27;;
75289;SDS011;63883;48.996;20.804;2023-02-11T11:33:58;50.15;;;25.95;;
75289;SDS011;63883;48.996;20.804;2023-02-11T11:36:33;51.83;;;27.40;;
75289;SDS011;63883;48.996;20.804;2023-02-11T11:39:01;58.30;;;27.73;;
75289;SDS011;63883;48.996;20.804;2023-02-11T11:41:52;54.88;;;28.85;;
75289;SDS011;63883;48.996;20.804;2023-02-11T11:44:33;51.45;;;27.33;;
75289;SDS011;63883;48.996;20.804;2023-02-11T11:47:14;56.45;;;29.08;;
75289;SDS011;63883;48.996;20.804;2023-02-11T11:55:10;71.07;;;36.33;;
75289;SDS011;63883;48.996;20.804;2023-02-11T11:57:42;62.92;;;32.33;;
75289;SDS011;63883;48.996;20.804;2023-02-11T12:00:42;82.55;;;40.42;;
75289;SDS011;63883;48.996;20.804;2023-02-11T12:03:13;54.17;;;28.55;;
75289;SDS011;63883;48.996;20.804;2023-02-11T12:06:17;57.75;;;27.90;;
75289;SDS011;63883;48.996;20.804;2023-02-11T12:22:30;60.60;;;30.15;;
75289;SDS011;63883;48.996;20.804;2023-02-11T12:27:53;46.63;;;26.05;;
75289;SDS011;63883;48.996;20.804;2023-02-11T12:33:47;49.08;;;26.00;;
75289;SDS011;63883;48.996;20.804;2023-02-11T12:45:12;59.80;;;32.95;;
75289;SDS011;63883;48.996;20.804;2023-02-11T12:57:54;57.85;;;30.77;;
75289;SDS011;63883;48.996;20.804;2023-02-11T13:00:22;62.17;;;32.95;;
75289;SDS011;63883;48.996;20.804;2023-02-11T13:02:59;61.88;;;33.42;;
75289;SDS011;63883;48.996;20.804;2023-02-11T13:06:02;55.38;;;29.80;;
75289;SDS011;63883;48.996;20.804;2023-02-11T13:08:36;59.65;;;29.85;;
75289;SDS011;63883;48.996;20.804;2023-02-11T13:11:07;55.33;;;29.00;;
75289;SDS011;63883;48.996;20.804;2023-02-11T13:13:38;64.68;;;33.58;;
75289;SDS011;63883;48.996;20.804;2023-02-11T13:16:12;60.88;;;33.60;;
75289;SDS011;63883;48.996;20.804;2023-02-11T13:27:09;45.97;;;25.60;;
75289;SDS011;63883;48.996;20.804;2023-02-11T13:30:12;51.38;;;27.42;;
75289;SDS011;63883;48.996;20.804;2023-02-11T13:37:56;47.15;;;26.67;;
75289;SDS011;63883;48.996;20.804;2023-02-11T13:40:24;63.22;;;34.17;;
75289;SDS011;63883;48.996;20.804;2023-02-11T13:42:57;52.33;;;28.30;;
75289;SDS011;63883;48.996;20.804;2023-02-11T13:45:35;43.22;;;22.75;;
75289;SDS011;63883;48.996;20.804;2023-02-11T13:50:49;49.55;;;25.55;;
75289;SDS011;63883;48.996;20.804;2023-02-11T13:53:17;55.92;;;28.63;;
75289;SDS011;63883;48.996;20.804;2023-02-11T13:55:45;54.05;;;27.15;;
75289;SDS011;63883;48.996;20.804;2023-02-11T14:19:37;63.22;;;30.35;;
75289;SDS011;63883;48.996;20.804;2023-02-11T14:27:09;62.47;;;29.00;;
75289;SDS011;63883;48.996;20.804;2023-02-11T14:35:02;72.82;;;32.22;;
75289;SDS011;63883;48.996;20.804;2023-02-11T14:42:35;114.10;;;43.22;;
75289;SDS011;63883;48.996;20.804;2023-02-11T14:45:06;92.45;;;40.42;;
75289;SDS011;63883;48.996;20.804;2023-02-11T14:47:39;219.95;;;74.63;;
75289;SDS011;63883;48.996;20.804;2023-02-11T14:50:16;85.20;;;39.22;;
75289;SDS011;63883;48.996;20.804;2023-02-11T14:53:03;95.72;;;39.63;;
75289;SDS011;63883;48.996;20.804;2023-02-11T15:00:48;112.28;;;42.65;;
75289;SDS011;63883;48.996;20.804;2023-02-11T15:03:26;103.75;;;45.75;;
75289;SDS011;63883;48.996;20.804;2023-02-11T15:05:56;98.80;;;41.72;;
75289;SDS011;63883;48.996;20.804;2023-02-11T15:08:25;142.80;;;51.28;;
75289;SDS011;63883;48.996;20.804;2023-02-11T15:10:52;89.65;;;36.35;;
75289;SDS011;63883;48.996;20.804;2023-02-11T15:13:20;86.10;;;37.28;;
75289;SDS011;63883;48.996;20.804;2023-02-11T15:15:54;119.45;;;45.33;;
75289;SDS011;63883;48.996;20.804;2023-02-11T15:18:25;319.20;;;84.97;;
75289;SDS011;63883;48.996;20.804;2023-02-11T15:20:57;308.33;;;78.45;;
75289;SDS011;63883;48.996;20.804;2023-02-11T15:23:23;199.23;;;63.90;;
75289;SDS011;63883;48.996;20.804;2023-02-11T15:25:51;151.98;;;55.13;;
75289;SDS011;63883;48.996;20.804;2023-02-11T15:28:30;125.13;;;50.15;;
75289;SDS011;63883;48.996;20.804;2023-02-11T15:31:01;90.88;;;39.70;;
75289;SDS011;63883;48.996;20.804;2023-02-11T15:33:38;72.30;;;33.17;;
75289;SDS011;63883;48.996;20.804;2023-02-11T15:36:05;67.60;;;31.95;;
75289;SDS011;63883;48.996;20.804;2023-02-11T15:38:31;116.18;;;42.35;;
75289;SDS011;63883;48.996;20.804;2023-02-11T15:40:58;199.05;;;61.47;;
75289;SDS011;63883;48.996;20.804;2023-02-11T15:43:42;132.82;;;46.63;;
75289;SDS011;63883;48.996;20.804;2023-02-11T15:46:10;73.72;;;34.35;;
75289;SDS011;63883;48.996;20.804;2023-02-11T15:48:45;69.28;;;31.98;;
75289;SDS011;63883;48.996;20.804;2023-02-11T15:51:18;79.10;;;36.20;;
75289;SDS011;63883;48.996;20.804;2023-02-11T15:53:51;69.60;;;32.38;;
75289;SDS011;63883;48.996;20.804;2023-02-11T15:59:08;106.82;;;43.58;;
75289;SDS011;63883;48.996;20.804;2023-02-11T16:01:39;180.68;;;54.13;;
75289;SDS011;63883;48.996;20.804;2023-02-11T16:04:12;87.95;;;40.00;;
75289;SDS011;63883;48.996;20.804;2023-02-11T16:06:43;335.92;;;83.97;;
75289;SDS011;63883;48.996;20.804;2023-02-11T16:16:54;129.63;;;52.20;;
75289;SDS011;63883;48.996;20.804;2023-02-11T16:19:27;114.63;;;52.70;;
75289;SDS011;63883;48.996;20.804;2023-02-11T16:21:54;109.07;;;48.60;;
75289;SDS011;63883;48.996;20.804;2023-02-11T16:26:52;106.35;;;45.58;;
75289;SDS011;63883;48.996;20.804;2023-02-11T16:31:52;69.72;;;30.98;;
75289;SDS011;63883;48.996;20.804;2023-02-11T16:34:29;85.35;;;38.22;;
75289;SDS011;63883;48.996;20.804;2023-02-11T16:36:55;79.03;;;37.15;;
75289;SDS011;63883;48.996;20.804;2023-02-11T16:39:22;99.43;;;42.97;;
75289;SDS011;63883;48.996;20.804;2023-02-11T16:41:48;105.90;;;46.03;;
75289;SDS011;63883;48.996;20.804;2023-02-11T16:44:17;107.70;;;45.03;;
75289;SDS011;63883;48.996;20.804;2023-02-11T16:46:43;91.00;;;40.85;;
75289;SDS011;63883;48.996;20.804;2023-02-11T16:51:49;177.20;;;54.40;;
75289;SDS011;63883;48.996;20.804;2023-02-11T16:54:18;133.45;;;47.45;;
75289;SDS011;63883;48.996;20.804;2023-02-11T16:56:44;135.18;;;45.92;;
75289;SDS011;63883;48.996;20.804;2023-02-11T16:59:10;138.98;;;48.58;;
75289;SDS011;63883;48.996;20.804;2023-02-11T17:01:36;89.88;;;39.05;;
75289;SDS011;63883;48.996;20.804;2023-02-11T17:04:04;104.88;;;45.28;;
75289;SDS011;63883;48.996;20.804;2023-02-11T17:06:32;96.20;;;42.78;;
75289;SDS011;63883;48.996;20.804;2023-02-11T17:08:58;128.55;;;52.92;;
75289;SDS011;63883;48.996;20.804;2023-02-11T17:11:24;148.30;;;58.65;;
75289;SDS011;63883;48.996;20.804;2023-02-11T17:13:50;111.80;;;49.08;;
75289;SDS011;63883;48.996;20.804;2023-02-11T17:16:17;111.35;;;47.50;;
75289;SDS011;63883;48.996;20.804;2023-02-11T17:18:44;144.77;;;55.05;;
75289;SDS011;63883;48.996;20.804;2023-02-11T17:21:11;147.40;;;57.13;;
75289;SDS011;63883;48.996;20.804;2023-02-11T17:23:37;125.10;;;53.47;;
75289;SDS011;63883;48.996;20.804;2023-02-11T17:26:03;127.80;;;50.90;;
75289;SDS011;63883;48.996;20.804;2023-02-11T17:28:30;119.80;;;51.45;;
75289;SDS011;63883;48.996;20.804;2023-02-11T17:30:56;93.90;;;39.90;;
75289;SDS011;63883;48.996;20.804;2023-02-11T17:33:23;92.22;;;39.85;;
75289;SDS011;63883;48.996;20.804;2023-02-11T17:35:49;95.43;;;41.17;;
75289;SDS011;63883;48.996;20.804;2023-02-11T17:38:15;100.45;;;44.47;;